Time;durP1;ratioP1;P1;durP2;ratioP2;P2;SDS_P1;SDS_P2;PMS_P1;PMS_P2;Temp;Humidity;BMP_temperature;BMP_pressure;BME280_temperature;BME280_humidity;BME280_pressure;Samples;Min_cycle;Max_cycle;Signal;HPM_P1;HPM_P2
2023/11/25 00:00:31;;;;;;;1999.90;999.90;;;;;;;7.35;93.40;94324.25;5113664;28;20506;-63
2023/11/25 00:02:58;;;;;;;1999.90;999.90;;;;;;;7.43;94.35;94321.16;5113488;28;20131;-66
2023/11/25 00:05:26;;;;;;;1999.90;999.90;;;;;;;7.46;93.58;94318.34;5113513;28;20055;-64
2023/11/25 00:07:53;;;;;;;1999.90;999.90;;;;;;;7.45;92.97;94316.69;5113334;28;20082;-65
2023/11/25 00:10:22;;;;;;;1999.90;999.90;;;;;;;7.42;92.45;94309.94;5113835;28;20051;-66
2023/11/25 00:12:49;;;;;;;1999.90;999.90;;;;;;;7.41;92.73;94313.44;5113443;28;20050;-63
2023/11/25 00:15:16;;;;;;;1999.90;999.90;;;;;;;7.50;93.34;94316.41;5113275;28;20142;-66
2023/11/25 00:17:44;;;;;;;1999.90;999.90;;;;;;;7.53;93.32;94309.25;5113581;28;20100;-65
2023/11/25 00:20:11;;;;;;;1999.90;999.90;;;;;;;7.56;93.20;94311.66;5113299;28;20083;-64
2023/11/25 00:22:40;;;;;;;1999.90;999.90;;;;;;;7.64;93.38;94297.34;5113364;28;20151;-62
2023/11/25 00:25:09;;;;;;;1999.90;999.90;;;;;;;7.69;93.52;94292.69;5113681;28;20075;-62
2023/11/25 00:27:37;;;;;;;1999.90;999.90;;;;;;;7.73;93.50;94275.94;5113214;28;20787;-63
2023/11/25 00:30:05;;;;;;;1999.90;999.90;;;;;;;7.73;92.81;94280.34;5113406;28;20044;-62
2023/11/25 00:32:37;;;;;;;1999.90;999.90;;;;;;;7.69;93.20;94277.94;5113524;28;20048;-63
2023/11/25 00:35:05;;;;;;;1999.90;999.90;;;;;;;7.69;93.69;94274.47;5113161;28;20120;-63
2023/11/25 00:37:32;;;;;;;1999.90;999.90;;;;;;;7.66;94.13;94279.88;5113228;28;20508;-65
2023/11/25 00:40:00;;;;;;;1999.90;999.90;;;;;;;7.59;94.75;94274.22;5113169;28;20051;-64
2023/11/25 00:42:28;;;;;;;1999.90;999.90;;;;;;;7.53;95.16;94265.00;5113276;28;20081;-66
2023/11/25 00:44:55;;;;;;;1999.90;999.90;;;;;;;7.63;95.68;94280.06;5113213;28;20135;-63
2023/11/25 00:47:23;;;;;;;1999.90;999.90;;;;;;;7.71;95.65;94285.63;5116310;28;20039;-62
2023/11/25 00:49:52;;;;;;;1999.90;999.90;;;;;;;7.77;95.22;94269.63;5117143;28;20400;-63
2023/11/25 00:52:19;;;;;;;1999.90;999.90;;;;;;;7.76;94.91;94259.31;5117109;28;20435;-63
2023/11/25 00:54:46;;;;;;;1999.90;999.90;;;;;;;7.74;95.22;94254.22;5117024;28;20043;-63
2023/11/25 00:57:15;;;;;;;1999.90;999.90;;;;;;;7.80;95.64;94251.19;5116845;28;20233;-62
2023/11/25 00:59:43;;;;;;;1999.90;999.90;;;;;;;7.84;95.54;94252.69;5116869;28;20131;-62
2023/11/25 01:02:10;;;;;;;1999.90;999.90;;;;;;;7.89;95.43;94254.97;5116964;28;20078;-65
2023/11/25 01:04:40;;;;;;;1999.90;999.90;;;;;;;7.93;95.04;94253.03;5116812;28;20056;-63
2023/11/25 01:07:07;;;;;;;1999.90;999.90;;;;;;;7.95;95.05;94240.75;5116610;28;20043;-65
2023/11/25 01:09:34;;;;;;;1999.90;999.90;;;;;;;7.91;95.48;94237.50;5116724;28;20075;-63
2023/11/25 01:12:01;;;;;;;1999.90;999.90;;;;;;;7.90;95.71;94228.03;5116728;28;20051;-64
2023/11/25 01:14:32;;;;;;;1999.90;999.90;;;;;;;7.98;95.84;94227.56;5115408;28;20050;-65
2023/11/25 01:17:01;;;;;;;1999.90;999.90;;;;;;;8.03;95.45;94217.66;5116607;28;20047;-65
2023/11/25 01:19:29;;;;;;;1999.90;999.90;;;;;;;8.00;95.37;94217.84;5116492;28;20097;-63
2023/11/25 01:21:57;;;;;;;1999.90;999.90;;;;;;;7.98;95.15;94214.53;5116540;28;20097;-64
2023/11/25 01:24:24;;;;;;;1999.90;999.90;;;;;;;8.05;95.13;94214.97;5116583;28;20051;-64
2023/11/25 01:26:52;;;;;;;1999.90;999.90;;;;;;;8.02;94.96;94217.75;5116403;28;20105;-66
2023/11/25 01:29:19;;;;;;;1999.90;999.90;;;;;;;8.01;95.27;94219.53;5116162;28;20051;-62
2023/11/25 01:31:48;;;;;;;1999.90;999.90;;;;;;;8.04;95.21;94208.09;5116475;28;20093;-64
2023/11/25 01:34:15;;;;;;;1999.90;999.90;;;;;;;8.00;95.19;94181.41;5116560;28;20048;-63
2023/11/25 01:36:43;;;;;;;1999.90;999.90;;;;;;;8.13;95.05;94189.25;5116362;28;20051;-67
2023/11/25 01:39:11;;;;;;;1999.90;999.90;;;;;;;8.08;95.00;94181.75;5116109;28;20059;-65
2023/11/25 01:41:40;;;;;;;1999.90;999.90;;;;;;;8.07;94.99;94174.88;5116147;28;20127;-66
2023/11/25 01:44:08;;;;;;;1999.90;999.90;;;;;;;8.09;95.44;94166.94;5116073;28;20405;-65
2023/11/25 01:46:38;;;;;;;1999.90;999.90;;;;;;;8.17;95.63;94159.47;5116043;28;20136;-65
2023/11/25 01:49:08;;;;;;;1999.90;999.90;;;;;;;8.20;96.70;94148.88;5115897;27;20100;-65
2023/11/25 01:51:43;;;;;;;1999.90;999.90;;;;;;;8.25;97.72;94151.13;5115953;27;20488;-65
2023/11/25 01:54:13;;;;;;;1999.90;999.90;;;;;;;8.26;98.85;94142.41;5115731;28;20096;-63
2023/11/25 01:56:43;;;;;;;1999.90;999.90;;;;;;;8.33;100.00;94130.63;5115405;28;20075;-63
2023/11/25 01:59:12;;;;;;;1999.90;999.90;;;;;;;8.35;100.00;94125.31;5115745;28;20447;-64
2023/11/25 02:01:43;;;;;;;1999.90;999.90;;;;;;;8.44;100.00;94118.66;5115757;28;20050;-62
2023/11/25 02:04:13;;;;;;;1999.90;999.90;;;;;;;8.53;100.00;94131.06;5115660;28;20455;-65
2023/11/25 02:06:41;;;;;;;1999.90;999.90;;;;;;;8.56;100.00;94128.28;5115431;28;20071;-61
2023/11/25 02:09:09;;;;;;;1999.90;999.90;;;;;;;8.65;100.00;94124.19;5115397;28;20409;-63
2023/11/25 02:11:54;;;;;;;1999.90;999.90;;;;;;;8.59;98.00;94140.25;5115752;28;20131;-64
2023/11/25 02:14:22;;;;;;;1999.90;999.90;;;;;;;8.57;97.06;94139.50;5115465;28;20485;-63
2023/11/25 02:16:49;;;;;;;1999.90;999.90;;;;;;;8.58;96.24;94126.38;5115548;28;20075;-65
2023/11/25 02:19:18;;;;;;;1999.90;999.90;;;;;;;8.59;95.75;94135.03;5115453;28;20047;-61
2023/11/25 02:21:45;;;;;;;1999.90;999.90;;;;;;;8.55;95.58;94129.19;5115309;28;20050;-66
2023/11/25 02:24:14;;;;;;;1999.90;999.90;;;;;;;8.49;94.86;94124.38;5115215;28;20052;-64
2023/11/25 02:26:42;;;;;;;1999.90;999.90;;;;;;;8.45;95.02;94115.94;5115396;28;20051;-62
2023/11/25 02:29:10;;;;;;;1999.90;999.90;;;;;;;8.45;95.89;94099.47;5115086;28;20105;-63
2023/11/25 02:31:38;;;;;;;1999.90;999.90;;;;;;;8.47;96.28;94085.41;5115132;28;20466;-62
2023/11/25 02:34:06;;;;;;;1999.90;999.90;;;;;;;8.50;97.09;94089.56;5115259;28;20048;-62
2023/11/25 02:36:34;;;;;;;1999.90;999.90;;;;;;;8.52;97.02;94098.09;5115134;28;20447;-66
2023/11/25 02:39:01;;;;;;;1999.90;999.90;;;;;;;8.54;97.46;94101.47;5114945;28;20448;-65
2023/11/25 02:41:30;;;;;;;1999.90;999.90;;;;;;;8.60;97.96;94095.00;5114850;28;20096;-65
2023/11/25 02:43:57;;;;;;;1999.90;999.90;;;;;;;8.59;97.23;94090.75;5115078;28;20075;-65
2023/11/25 02:46:24;;;;;;;1999.90;999.90;;;;;;;8.58;96.64;94070.84;5114960;28;20138;-65
2023/11/25 02:48:51;;;;;;;1999.90;999.90;;;;;;;8.56;96.39;94063.13;5114940;28;20134;-61
2023/11/25 02:51:19;;;;;;;1999.90;999.90;;;;;;;8.57;96.09;94067.41;5114958;28;20122;-65
2023/11/25 02:53:46;;;;;;;1999.90;999.90;;;;;;;8.55;95.50;94071.88;5114621;28;20100;-63
2023/11/25 02:56:14;;;;;;;1999.90;999.90;;;;;;;8.54;95.18;94069.38;5114639;28;20047;-64
2023/11/25 02:58:44;;;;;;;1999.90;999.90;;;;;;;8.51;94.18;94073.00;5114860;28;20047;-63
2023/11/25 03:01:13;;;;;;;1999.90;999.90;;;;;;;8.47;94.48;94072.41;5114567;28;20130;-62
2023/11/25 03:03:47;;;;;;;1999.90;999.90;;;;;;;8.44;94.87;94056.97;5114672;28;20078;-62
2023/11/25 03:06:15;;;;;;;1999.90;999.90;;;;;;;8.43;95.24;94052.69;5114220;28;20051;-66
2023/11/25 03:08:43;;;;;;;1999.90;999.90;;;;;;;8.45;95.27;94043.00;5113392;28;20121;-63
2023/11/25 03:11:15;;;;;;;1999.90;999.90;;;;;;;8.50;95.21;94041.84;5114368;28;20440;-66
2023/11/25 03:13:45;;;;;;;1999.90;999.90;;;;;;;8.47;95.14;94035.06;5114531;28;20040;-64
2023/11/25 03:16:12;;;;;;;1999.90;999.90;;;;;;;8.45;94.83;94022.16;5114245;28;20420;-64
2023/11/25 03:18:40;;;;;;;1999.90;999.90;;;;;;;8.46;94.76;94025.59;5114239;28;20520;-67
2023/11/25 03:21:09;;;;;;;1999.90;999.90;;;;;;;8.47;94.53;94022.06;5114175;28;20048;-67
2023/11/25 03:23:37;;;;;;;1999.90;999.90;;;;;;;8.47;94.78;94024.66;5114193;28;20504;-67
2023/11/25 03:26:05;;;;;;;1999.90;999.90;;;;;;;8.49;94.61;94012.34;5113977;28;20047;-62
2023/11/25 03:28:33;;;;;;;1999.90;999.90;;;;;;;8.52;94.79;94013.91;5114156;28;20058;-62
2023/11/25 03:31:04;;;;;;;1999.90;999.90;;;;;;;8.52;96.05;94013.91;5114063;28;20139;-64
2023/11/25 03:33:31;;;;;;;1999.90;999.90;;;;;;;8.56;96.16;94011.03;5113987;28;20101;-64
2023/11/25 03:35:58;;;;;;;1999.90;999.90;;;;;;;8.57;96.21;93999.66;5113961;28;20082;-64
2023/11/25 03:38:25;;;;;;;1999.90;999.90;;;;;;;8.52;96.91;94011.31;5113854;28;20511;-62
2023/11/25 03:40:52;;;;;;;1999.90;999.90;;;;;;;8.54;97.10;94002.47;5113832;28;20100;-67
2023/11/25 03:43:21;;;;;;;1999.90;999.90;;;;;;;8.61;96.93;94010.66;5113893;28;20089;-65
2023/11/25 03:45:48;;;;;;;1999.90;999.90;;;;;;;8.65;96.71;94001.72;5113818;28;20051;-64
2023/11/25 03:48:16;;;;;;;1999.90;999.90;;;;;;;8.66;96.24;93992.94;5113608;28;20051;-62
2023/11/25 03:50:45;;;;;;;1999.90;999.90;;;;;;;8.67;95.90;93986.78;5113767;28;20127;-64
2023/11/25 03:53:12;;;;;;;1999.90;999.90;;;;;;;8.47;95.68;93988.19;5113685;28;20043;-65
2023/11/25 03:55:39;;;;;;;1999.90;999.90;;;;;;;8.47;96.34;93991.63;5113760;28;20054;-61
2023/11/25 03:58:06;;;;;;;1999.90;999.90;;;;;;;8.52;97.06;93975.66;5113676;28;20047;-66
2023/11/25 04:00:33;;;;;;;1999.90;999.90;;;;;;;8.46;97.69;93973.50;5113757;28;20051;-64
2023/11/25 04:03:00;;;;;;;1999.90;999.90;;;;;;;8.47;97.85;93968.19;5113625;28;20130;-63
2023/11/25 04:05:29;;;;;;;1999.90;999.90;;;;;;;8.50;96.87;93958.47;5113652;28;20046;-62
2023/11/25 04:07:56;;;;;;;1999.90;999.90;;;;;;;8.47;96.62;93962.13;5113583;28;20044;-66
2023/11/25 04:10:23;;;;;;;1999.90;999.90;;;;;;;8.41;96.56;93952.97;5113375;28;20131;-62
2023/11/25 04:12:52;;;;;;;1999.90;999.90;;;;;;;8.40;98.02;93948.69;5113552;28;20048;-62
2023/11/25 04:15:20;;;;;;;1999.90;999.90;;;;;;;8.42;98.05;93944.22;5113477;28;20051;-66
2023/11/25 04:17:47;;;;;;;1999.90;999.90;;;;;;;8.42;98.16;93945.97;5113413;28;20061;-63
2023/11/25 04:20:14;;;;;;;1999.90;999.90;;;;;;;8.39;97.40;93946.19;5114831;28;20044;-63
2023/11/25 04:22:44;;;;;;;1999.90;999.90;;;;;;;8.33;98.29;93958.72;5117704;28;20118;-62
2023/11/25 04:25:13;;;;;;;1999.90;999.90;;;;;;;8.33;99.48;93944.88;5117561;28;20047;-64
2023/11/25 04:27:41;;;;;;;1999.90;999.90;;;;;;;8.30;99.62;93964.16;5117539;28;20504;-63
2023/11/25 04:30:10;;;;;;;1999.90;999.90;;;;;;;8.34;99.93;93960.38;5117501;28;20405;-64
2023/11/25 04:32:37;;;;;;;1999.90;999.90;;;;;;;8.35;99.06;93950.81;5117904;28;20448;-65
2023/11/25 04:35:06;;;;;;;1999.90;999.90;;;;;;;8.30;98.32;93945.06;5117581;28;20099;-63
2023/11/25 04:37:33;;;;;;;1999.90;999.90;;;;;;;8.33;98.36;93940.50;5117479;28;20044;-64
2023/11/25 04:40:05;;;;;;;1999.90;999.90;;;;;;;8.36;97.67;93933.41;5117396;27;20051;-64
2023/11/25 04:42:32;;;;;;;1999.90;999.90;;;;;;;8.35;97.05;93927.38;5117602;28;20132;-65
2023/11/25 04:44:59;;;;;;;1999.90;999.90;;;;;;;8.30;97.19;93929.44;5117112;28;20044;-65
2023/11/25 04:47:27;;;;;;;1999.90;999.90;;;;;;;8.38;96.64;93932.38;5117108;28;20130;-65
2023/11/25 04:49:54;;;;;;;1999.90;999.90;;;;;;;8.32;96.65;93933.63;5117026;28;20097;-63
2023/11/25 04:52:21;;;;;;;1999.90;999.90;;;;;;;8.35;96.65;93937.78;5117174;28;20051;-66
2023/11/25 04:54:48;;;;;;;1999.90;999.90;;;;;;;8.35;96.32;93940.38;5117170;28;20044;-66
2023/11/25 04:57:18;;;;;;;1999.90;999.90;;;;;;;8.39;96.16;93930.56;5116892;28;20079;-63
2023/11/25 04:59:46;;;;;;;1999.90;999.90;;;;;;;8.33;95.96;93911.00;5117199;28;20043;-65
2023/11/25 05:02:13;;;;;;;1999.90;999.90;;;;;;;8.36;95.96;93915.19;5117292;28;20047;-64
2023/11/25 05:04:40;;;;;;;1999.90;999.90;;;;;;;8.31;95.94;93915.50;5116964;28;20056;-64
2023/11/25 05:07:08;;;;;;;1999.90;999.90;;;;;;;8.24;96.19;93916.88;5116661;28;20043;-62
2023/11/25 05:09:38;;;;;;;1999.90;999.90;;;;;;;8.27;96.73;93914.03;5116799;28;20127;-63
2023/11/25 05:12:06;;;;;;;1999.90;999.90;;;;;;;8.25;97.37;93911.53;5116805;28;20051;-63
2023/11/25 05:14:35;;;;;;;1999.90;999.90;;;;;;;8.16;96.95;93910.41;5116642;28;20541;-65
2023/11/25 05:17:03;;;;;;;1999.90;999.90;;;;;;;8.12;97.34;93905.56;5116613;28;20044;-63
2023/11/25 05:19:31;;;;;;;1999.90;999.90;;;;;;;8.08;97.14;93902.34;5116824;28;20054;-61
2023/11/25 05:21:58;;;;;;;1999.90;999.90;;;;;;;8.11;97.17;93906.47;5116579;27;20048;-65
2023/11/25 05:24:26;;;;;;;1999.90;999.90;;;;;;;8.12;96.80;93916.78;5116477;28;20060;-64
2023/11/25 05:26:53;;;;;;;1999.90;999.90;;;;;;;8.14;96.49;93911.47;5116726;28;20047;-64
2023/11/25 05:29:20;;;;;;;1999.90;999.90;;;;;;;8.17;96.38;93912.09;5116338;28;20135;-65
2023/11/25 05:31:49;;;;;;;1999.90;999.90;;;;;;;8.21;96.14;93910.09;5115412;28;20062;-65
2023/11/25 05:34:16;;;;;;;1999.90;999.90;;;;;;;8.26;95.56;93908.03;5116310;28;20040;-65
2023/11/25 05:36:43;;;;;;;1999.90;999.90;;;;;;;8.25;95.13;93905.53;5116253;28;20074;-64
2023/11/25 05:39:13;;;;;;;1999.90;999.90;;;;;;;8.26;95.13;93887.19;5116389;28;20053;-64
2023/11/25 05:41:41;;;;;;;1999.90;999.90;;;;;;;8.23;95.06;93887.41;5116331;28;20048;-64
2023/11/25 05:44:09;;;;;;;1999.90;999.90;;;;;;;8.22;95.59;93889.16;5116240;28;20047;-63
2023/11/25 05:46:37;;;;;;;1999.90;999.90;;;;;;;8.24;97.13;93886.44;5116033;28;20086;-64
2023/11/25 05:49:08;;;;;;;1999.90;999.90;;;;;;;8.29;97.99;93883.53;5115889;28;20054;-66
2023/11/25 05:51:36;;;;;;;;;;;;;;;8.30;98.55;93885.19;5116355;28;20134;-66
2023/11/25 05:54:03;;;;;;;1999.90;999.90;;;;;;;8.29;100.00;93889.56;5116187;28;19923;-66
2023/11/25 05:56:31;;;;;;;1999.90;999.90;;;;;;;8.36;100.00;93876.94;5115800;28;20051;-65
2023/11/25 05:58:58;;;;;;;1999.90;999.90;;;;;;;8.41;100.00;93882.66;5115729;28;20052;-63
2023/11/25 06:01:26;;;;;;;1999.90;999.90;;;;;;;8.46;100.00;93877.94;5115750;28;20059;-62
2023/11/25 06:03:54;;;;;;;1999.90;999.90;;;;;;;8.55;100.00;93876.47;5115800;28;20075;-63
2023/11/25 06:06:23;;;;;;;1999.90;999.90;;;;;;;8.57;100.00;93871.13;5115293;28;20062;-64
2023/11/25 06:08:50;;;;;;;1999.90;999.90;;;;;;;8.59;100.00;93883.13;5115514;28;20093;-63
2023/11/25 06:11:21;;;;;;;1999.90;999.90;;;;;;;8.64;100.00;93880.16;5115530;28;20043;-66
2023/11/25 06:13:49;;;;;;;1999.90;999.90;;;;;;;8.68;100.00;93875.56;5115560;28;20069;-63
2023/11/25 06:16:16;;;;;;;1999.90;999.90;;;;;;;8.69;100.00;93878.06;5115443;28;20049;-61
2023/11/25 06:18:44;;;;;;;1999.90;999.90;;;;;;;8.75;100.00;93883.75;5115522;28;20406;-62
2023/11/25 06:21:11;;;;;;;1999.90;999.90;;;;;;;8.71;100.00;93880.56;5115512;28;20039;-65
2023/11/25 06:23:40;;;;;;;1999.90;999.90;;;;;;;8.71;100.00;93868.38;5115354;28;20090;-61
2023/11/25 06:26:10;;;;;;;1999.90;999.90;;;;;;;8.70;100.00;93871.09;5115415;28;20051;-66
2023/11/25 06:28:41;;;;;;;1999.90;999.90;;;;;;;8.67;100.00;93873.94;5115308;28;20055;-62
2023/11/25 06:31:09;;;;;;;1999.90;999.90;;;;;;;8.68;100.00;93888.59;5115093;28;20050;-66
2023/11/25 06:33:38;;;;;;;1999.90;999.90;;;;;;;8.67;100.00;93886.94;5115107;28;20128;-66
2023/11/25 06:36:06;;;;;;;1999.90;999.90;;;;;;;8.69;99.00;93882.44;5115081;28;20112;-66
2023/11/25 06:38:33;;;;;;;1999.90;999.90;;;;;;;8.63;97.79;93886.34;5115078;28;20050;-64
2023/11/25 06:41:02;;;;;;;1999.90;999.90;;;;;;;8.58;96.53;93870.22;5115133;28;20512;-62
2023/11/25 06:43:29;;;;;;;1999.90;999.90;;;;;;;8.49;95.58;93873.44;5114825;28;20043;-62
2023/11/25 06:45:57;;;;;;;1999.90;999.90;;;;;;;8.52;96.12;93881.03;5114782;28;20050;-61
2023/11/25 06:48:24;;;;;;;1999.90;999.90;;;;;;;8.46;95.83;93874.50;5114886;28;20412;-65
2023/11/25 06:50:52;;;;;;;1999.90;999.90;;;;;;;8.46;95.36;93879.72;5114771;28;20048;-65
2023/11/25 06:53:20;;;;;;;1999.90;999.90;;;;;;;8.49;94.18;93882.06;5114922;28;20079;-65
2023/11/25 06:55:48;;;;;;;1999.90;999.90;;;;;;;8.49;94.25;93873.44;5114751;28;20508;-63
2023/11/25 06:58:18;;;;;;;1999.90;999.90;;;;;;;8.47;93.85;93879.63;5114627;28;20139;-65
2023/11/25 07:00:45;;;;;;;1999.90;999.90;;;;;;;8.48;93.59;93888.25;5114896;28;20482;-62
2023/11/25 07:03:13;;;;;;;1999.90;999.90;;;;;;;8.44;92.61;93863.34;5114518;28;20047;-64
2023/11/25 07:05:41;;;;;;;1999.90;999.90;;;;;;;8.36;92.09;93865.69;5114404;28;20039;-64
2023/11/25 07:08:09;;;;;;;1999.90;999.90;;;;;;;8.32;91.68;93865.06;5114195;28;20489;-67
2023/11/25 07:10:36;;;;;;;1999.90;999.90;;;;;;;8.39;91.62;93876.72;5114302;28;20144;-65
2023/11/25 07:13:04;;;;;;;1999.90;999.90;;;;;;;8.39;91.40;93886.28;5114346;28;20485;-65
2023/11/25 07:15:33;;;;;;;1999.90;999.90;;;;;;;8.37;90.82;93880.38;5114343;28;20040;-62
2023/11/25 07:18:03;;;;;;;1999.90;999.90;;;;;;;8.36;89.89;93884.75;5114227;28;20092;-63
2023/11/25 07:20:31;;;;;;;1999.90;999.90;;;;;;;8.33;89.03;93882.34;5114227;28;20048;-62
2023/11/25 07:22:59;;;;;;;1999.90;999.90;;;;;;;8.34;89.83;93890.06;5114232;28;20052;-61
2023/11/25 07:25:29;;;;;;;1999.90;999.90;;;;;;;8.42;88.71;93893.88;5114133;28;20162;-65
2023/11/25 07:27:56;;;;;;;1999.90;999.90;;;;;;;8.38;87.51;93898.50;5114227;28;20130;-63
2023/11/25 07:30:24;;;;;;;1999.90;999.90;;;;;;;8.39;87.84;93894.94;5113866;28;20052;-62
2023/11/25 07:32:52;;;;;;;1999.90;999.90;;;;;;;8.37;87.17;93889.00;5114134;28;20048;-62
2023/11/25 07:35:20;;;;;;;1999.90;999.90;;;;;;;8.39;86.14;93884.53;5114326;28;20473;-65
2023/11/25 07:37:48;;;;;;;1999.90;999.90;;;;;;;8.34;86.16;93890.06;5113984;28;20048;-63
2023/11/25 07:40:17;;;;;;;1999.90;999.90;;;;;;;8.25;85.55;93882.09;5114023;28;20058;-63
2023/11/25 07:42:48;;;;;;;1999.90;999.90;;;;;;;8.27;85.28;93890.59;5113837;28;20044;-66
2023/11/25 07:45:16;;;;;;;1999.90;999.90;;;;;;;8.22;84.72;93889.16;5114098;28;20052;-65
2023/11/25 07:47:44;;;;;;;1999.90;999.90;;;;;;;8.17;84.77;93887.84;5113831;28;20040;-66
2023/11/25 07:50:14;;;;;;;1999.90;999.90;;;;;;;8.15;85.80;93879.28;5113655;28;20101;-65
2023/11/25 07:52:41;;;;;;;1999.90;999.90;;;;;;;8.16;85.95;93878.38;5113620;28;20043;-64
2023/11/25 07:55:09;;;;;;;1999.90;999.90;;;;;;;8.16;86.79;93875.75;5113322;28;20146;-65
2023/11/25 07:57:37;;;;;;;1999.90;999.90;;;;;;;8.17;87.07;93867.84;5113682;28;20053;-65
2023/11/25 08:00:06;;;;;;;1999.90;999.90;;;;;;;8.16;87.87;93865.34;5113668;28;20055;-64
2023/11/25 08:02:33;;;;;;;1999.90;999.90;;;;;;;8.07;88.28;93865.03;5113566;28;20123;-64
2023/11/25 08:05:01;;;;;;;1999.90;999.90;;;;;;;8.06;88.91;93863.38;5113488;28;20048;-64
2023/11/25 08:07:30;;;;;;;1999.90;999.90;;;;;;;8.00;89.00;93869.03;5113217;28;20039;-64
2023/11/25 08:09:57;;;;;;;1999.90;999.90;;;;;;;7.99;89.46;93856.13;5113353;28;20047;-62
2023/11/25 08:12:25;;;;;;;1999.90;999.90;;;;;;;7.90;89.38;93855.84;5113676;28;20044;-65
2023/11/25 08:14:53;;;;;;;1999.90;999.90;;;;;;;7.83;88.96;93854.59;5113502;28;20086;-63
2023/11/25 08:17:20;;;;;;;1999.90;999.90;;;;;;;7.75;88.78;93855.13;5113392;28;20083;-62
2023/11/25 08:19:48;;;;;;;1999.90;999.90;;;;;;;7.75;90.80;93849.09;5113731;28;20062;-65
2023/11/25 08:22:16;;;;;;;1999.90;999.90;;;;;;;7.73;90.26;93856.19;5113376;28;20075;-62
2023/11/25 08:24:45;;;;;;;1999.90;999.90;;;;;;;7.66;89.75;93851.41;5113467;28;20040;-67
2023/11/25 08:27:13;;;;;;;1999.90;999.90;;;;;;;7.63;89.95;93856.81;5113461;28;20382;-61
2023/11/25 08:29:40;;;;;;;1999.90;999.90;;;;;;;7.64;90.67;93848.06;5113510;28;20541;-65
2023/11/25 08:32:08;;;;;;;1999.90;999.90;;;;;;;7.59;92.09;93851.00;5113555;28;20054;-67
2023/11/25 08:34:35;;;;;;;1999.90;999.90;;;;;;;7.54;92.93;93847.03;5113345;28;20079;-65
2023/11/25 08:37:03;;;;;;;1999.90;999.90;;;;;;;7.49;93.53;93851.75;5113218;28;20039;-67
2023/11/25 08:39:32;;;;;;;1999.90;999.90;;;;;;;7.46;94.09;93863.16;5113550;28;20393;-63
2023/11/25 08:42:01;;;;;;;1999.90;999.90;;;;;;;7.39;95.23;93847.16;5113374;28;20044;-65
2023/11/25 08:44:28;;;;;;;1999.90;999.90;;;;;;;7.46;95.48;93848.41;5113211;28;20048;-66
2023/11/25 08:46:59;;;;;;;1999.90;999.90;;;;;;;7.50;95.39;93845.59;5113351;28;20054;-65
2023/11/25 08:49:26;;;;;;;1999.90;999.90;;;;;;;7.46;95.45;93840.59;5113150;28;20123;-67
2023/11/25 08:51:53;;;;;;;1999.90;999.90;;;;;;;7.43;95.82;93839.97;5113077;28;20111;-64
2023/11/25 08:54:20;;;;;;;1999.90;999.90;;;;;;;7.27;95.51;93833.25;5113337;28;20055;-64
2023/11/25 08:56:48;;;;;;;1999.90;999.90;;;;;;;7.17;95.81;93842.59;5113102;28;20090;-65
2023/11/25 08:59:20;;;;;;;1999.90;999.90;;;;;;;7.15;96.10;93840.09;5113031;28;20043;-67
2023/11/25 09:01:48;;;;;;;1999.90;999.90;;;;;;;7.14;95.75;93842.81;5113106;28;20097;-64
2023/11/25 09:04:19;;;;;;;1999.90;999.90;;;;;;;7.11;96.08;93850.81;5113014;28;20051;-65
2023/11/25 09:06:47;;;;;;;1999.90;999.90;;;;;;;7.11;96.73;93845.59;5113382;28;20123;-64
2023/11/25 09:09:16;;;;;;;1999.90;999.90;;;;;;;7.14;95.97;93843.66;5116819;28;20076;-64
2023/11/25 09:11:44;;;;;;;1999.90;999.90;;;;;;;7.14;96.31;93835.00;5116673;28;20052;-64
2023/11/25 09:14:12;;;;;;;1999.90;999.90;;;;;;;7.12;96.43;93840.31;5116626;28;20275;-64
2023/11/25 09:16:42;;;;;;;1999.90;999.90;;;;;;;7.15;96.30;93836.66;5116615;28;20509;-65
2023/11/25 09:19:09;;;;;;;1999.90;999.90;;;;;;;7.20;96.00;93834.59;5116599;28;20127;-62
2023/11/25 09:21:36;;;;;;;1999.90;999.90;;;;;;;7.16;95.71;93841.75;5116454;28;20051;-65
2023/11/25 09:24:04;;;;;;;1999.90;999.90;;;;;;;7.22;95.60;93837.09;5116599;28;20130;-66
2023/11/25 09:26:31;;;;;;;1999.90;999.90;;;;;;;7.28;95.49;93842.69;5116784;28;20069;-65
2023/11/25 09:28:59;;;;;;;1999.90;999.90;;;;;;;7.31;93.03;93845.09;5116415;28;20039;-65
2023/11/25 09:31:29;;;;;;;1999.90;999.90;;;;;;;7.29;92.62;93839.16;5116324;28;20059;-65
2023/11/25 09:34:02;;;;;;;1999.90;999.90;;;;;;;7.30;93.31;93840.00;5116399;28;20743;-65
2023/11/25 09:36:30;;;;;;;1999.90;999.90;;;;;;;7.18;92.61;93845.09;5116251;28;20126;-67
2023/11/25 09:38:59;;;;;;;1999.90;999.90;;;;;;;7.20;92.81;93840.59;5116238;28;20039;-62
2023/11/25 09:41:27;;;;;;;1999.90;999.90;;;;;;;7.30;93.82;93830.44;5116302;28;20056;-63
2023/11/25 09:43:54;;;;;;;1999.90;999.90;;;;;;;7.22;92.95;93824.09;5116138;28;20040;-66
2023/11/25 09:46:21;;;;;;;1999.90;999.90;;;;;;;7.11;92.91;93824.81;5116043;28;20043;-61
2023/11/25 09:48:49;;;;;;;1999.90;999.90;;;;;;;7.18;93.34;93834.69;5116115;28;20048;-63
2023/11/25 09:51:22;;;;;;;1999.90;999.90;;;;;;;7.19;92.70;93835.50;5115882;28;20048;-64
2023/11/25 09:53:56;;;;;;;1999.90;999.90;;;;;;;7.28;92.42;93836.66;5115858;28;20044;-66
2023/11/25 09:56:25;;;;;;;1999.90;999.90;;;;;;;7.28;91.65;93824.50;5115861;28;20072;-64
2023/11/25 09:58:55;;;;;;;1999.90;999.90;;;;;;;7.29;91.67;93820.94;5115847;28;20043;-63
2023/11/25 10:01:23;;;;;;;1999.90;999.90;;;;;;;7.30;92.32;93819.19;5115823;28;20552;-67
2023/11/25 10:03:57;;;;;;;1999.90;999.90;;;;;;;7.23;91.49;93804.94;5115594;28;20054;-63
2023/11/25 10:06:33;;;;;;;1999.90;999.90;;;;;;;7.17;91.89;93809.63;5115261;28;20048;-62
2023/11/25 10:09:09;;;;;;;1999.90;999.90;;;;;;;7.22;91.95;93808.50;5115551;28;20050;-63
2023/11/25 10:11:42;;;;;;;1999.90;999.90;;;;;;;7.24;91.01;93814.41;5115773;28;20147;-67
2023/11/25 10:14:14;;;;;;;1999.90;999.90;;;;;;;7.20;89.71;93804.22;5115569;28;20511;-64
2023/11/25 10:16:46;;;;;;;1999.90;999.90;;;;;;;7.07;88.37;93808.56;5115548;28;20497;-64
2023/11/25 10:19:22;;;;;;;1999.90;999.90;;;;;;;6.79;88.20;93803.50;5115059;28;20089;-65
2023/11/25 10:21:52;;;;;;;1999.90;999.90;;;;;;;6.68;87.60;93799.00;5115314;28;20059;-64
2023/11/25 10:24:21;;;;;;;1999.90;999.90;;;;;;;6.76;88.11;93795.06;5115278;28;20047;-61
2023/11/25 10:26:50;;;;;;;1999.90;999.90;;;;;;;6.74;89.14;93791.75;5115360;28;20047;-62
2023/11/25 10:29:20;;;;;;;1999.90;999.90;;;;;;;6.65;89.33;93794.00;5115176;28;20104;-63
2023/11/25 10:31:59;;;;;;;1999.90;999.90;;;;;;;6.60;89.92;93783.09;5115166;28;20055;-66
2023/11/25 10:34:29;;;;;;;1999.90;999.90;;;;;;;6.55;89.14;93775.63;5115193;28;20485;-62
2023/11/25 10:37:01;;;;;;;1999.90;999.90;;;;;;;6.50;89.66;93775.06;5115192;28;20127;-64
2023/11/25 10:39:34;;;;;;;1999.90;999.90;;;;;;;6.47;89.28;93767.47;5115338;28;20046;-66
2023/11/25 10:42:07;;;;;;;1999.90;999.90;;;;;;;6.41;89.33;93766.13;5115074;28;20051;-62
2023/11/25 10:44:35;;;;;;;1999.90;999.90;;;;;;;6.41;90.36;93754.94;5115040;28;20047;-66
2023/11/25 10:47:04;;;;;;;1999.90;999.90;;;;;;;6.25;89.65;93745.53;5114956;28;20046;-61
2023/11/25 10:49:34;;;;;;;1999.90;999.90;;;;;;;6.22;88.00;93755.28;5114867;28;20048;-65
2023/11/25 10:52:05;;;;;;;1999.90;999.90;;;;;;;6.15;87.46;93757.47;5114741;28;20052;-65
2023/11/25 10:54:35;;;;;;;1999.90;999.90;;;;;;;6.15;89.14;93760.91;5114702;28;20044;-64
2023/11/25 10:57:05;;;;;;;;;;;;;;;6.13;89.93;93775.72;5115137;28;20043;-65
2023/11/25 10:59:35;;;;;;;1999.90;999.90;;;;;;;6.05;87.23;93770.22;5114663;28;19919;-66
2023/11/25 11:02:07;;;;;;;1999.90;999.90;;;;;;;6.04;87.17;93763.34;5114557;28;20051;-62
2023/11/25 11:04:41;;;;;;;1999.90;999.90;;;;;;;6.10;88.89;93764.69;5114731;28;20053;-65
2023/11/25 11:07:15;;;;;;;1999.90;999.90;;;;;;;6.03;87.45;93757.31;5114012;28;20049;-66